sensor_id;sensor_type;location;lat;lon;timestamp;P1;durP1;ratioP1;P2;durP2;ratioP2
55597;SDS011;41463;53.186;5.552;2023-02-10T00:02:47;11.35;;;2.45;;
55597;SDS011;41463;53.186;5.552;2023-02-10T00:05:33;26.85;;;3.13;;
55597;SDS011;41463;53.186;5.552;2023-02-10T00:08:06;18.60;;;3.05;;
55597;SDS011;41463;53.186;5.552;2023-02-10T00:11:19;21.67;;;3.50;;
55597;SDS011;41463;53.186;5.552;2023-02-10T00:17:21;14.68;;;3.50;;
55597;SDS011;41463;53.186;5.552;2023-02-10T00:20:12;14.02;;;3.30;;
55597;SDS011;41463;53.186;5.552;2023-02-10T00:22:56;17.98;;;3.38;;
55597;SDS011;41463;53.186;5.552;2023-02-10T00:25:25;11.23;;;2.92;;
55597;SDS011;41463;53.186;5.552;2023-02-10T00:27:58;17.67;;;3.83;;
55597;SDS011;41463;53.186;5.552;2023-02-10T00:30:47;19.25;;;3.03;;
55597;SDS011;41463;53.186;5.552;2023-02-10T00:33:23;23.52;;;3.47;;
55597;SDS011;41463;53.186;5.552;2023-02-10T00:36:13;19.05;;;3.97;;
55597;SDS011;41463;53.186;5.552;2023-02-10T00:38:55;11.88;;;3.92;;
55597;SDS011;41463;53.186;5.552;2023-02-10T00:41:37;22.17;;;3.42;;
55597;SDS011;41463;53.186;5.552;2023-02-10T00:46:43;16.30;;;2.90;;
55597;SDS011;41463;53.186;5.552;2023-02-10T00:49:32;17.75;;;3.53;;
55597;SDS011;41463;53.186;5.552;2023-02-10T00:55:31;15.80;;;3.60;;
55597;SDS011;41463;53.186;5.552;2023-02-10T00:58:14;17.38;;;3.50;;
55597;SDS011;41463;53.186;5.552;2023-02-10T01:03:49;14.85;;;3.78;;
55597;SDS011;41463;53.186;5.552;2023-02-10T01:06:25;14.40;;;3.88;;
55597;SDS011;41463;53.186;5.552;2023-02-10T01:09:15;19.63;;;4.53;;
55597;SDS011;41463;53.186;5.552;2023-02-10T01:12:12;17.95;;;3.10;;
55597;SDS011;41463;53.186;5.552;2023-02-10T01:15:19;17.95;;;3.22;;
55597;SDS011;41463;53.186;5.552;2023-02-10T01:18:20;13.65;;;3.58;;
55597;SDS011;41463;53.186;5.552;2023-02-10T01:20:56;19.10;;;3.80;;
55597;SDS011;41463;53.186;5.552;2023-02-10T01:23:36;20.25;;;3.35;;
55597;SDS011;41463;53.186;5.552;2023-02-10T01:26:10;20.95;;;4.22;;
55597;SDS011;41463;53.186;5.552;2023-02-10T01:28:48;20.52;;;4.55;;
55597;SDS011;41463;53.186;5.552;2023-02-10T01:31:23;21.70;;;5.00;;
55597;SDS011;41463;53.186;5.552;2023-02-10T01:34:22;21.25;;;5.35;;
55597;SDS011;41463;53.186;5.552;2023-02-10T01:40:26;18.17;;;4.22;;
55597;SDS011;41463;53.186;5.552;2023-02-10T01:43:15;19.45;;;3.55;;
55597;SDS011;41463;53.186;5.552;2023-02-10T01:46:00;16.65;;;3.70;;
55597;SDS011;41463;53.186;5.552;2023-02-10T01:49:07;14.37;;;3.50;;
55597;SDS011;41463;53.186;5.552;2023-02-10T02:00:55;22.52;;;4.13;;
55597;SDS011;41463;53.186;5.552;2023-02-10T02:06:50;12.93;;;3.20;;
55597;SDS011;41463;53.186;5.552;2023-02-10T02:10:02;18.40;;;4.00;;
55597;SDS011;41463;53.186;5.552;2023-02-10T02:23:00;17.10;;;4.07;;
55597;SDS011;41463;53.186;5.552;2023-02-10T02:31:29;16.92;;;3.70;;
55597;SDS011;41463;53.186;5.552;2023-02-10T02:40:46;17.77;;;4.57;;
55597;SDS011;41463;53.186;5.552;2023-02-10T02:43:22;15.40;;;3.88;;
55597;SDS011;41463;53.186;5.552;2023-02-10T02:53:04;13.80;;;3.70;;
55597;SDS011;41463;53.186;5.552;2023-02-10T03:04:45;19.13;;;4.70;;
55597;SDS011;41463;53.186;5.552;2023-02-10T03:07:30;20.48;;;4.65;;
55597;SDS011;41463;53.186;5.552;2023-02-10T03:10:28;19.00;;;4.20;;
55597;SDS011;41463;53.186;5.552;2023-02-10T03:12:57;26.33;;;4.85;;
55597;SDS011;41463;53.186;5.552;2023-02-10T03:15:56;18.10;;;4.13;;
55597;SDS011;41463;53.186;5.552;2023-02-10T03:18:48;17.55;;;5.50;;
55597;SDS011;41463;53.186;5.552;2023-02-10T03:21:33;19.42;;;4.97;;
55597;SDS011;41463;53.186;5.552;2023-02-10T03:24:15;24.48;;;4.05;;
55597;SDS011;41463;53.186;5.552;2023-02-10T03:26:54;20.63;;;5.50;;
55597;SDS011;41463;53.186;5.552;2023-02-10T03:30:03;21.88;;;6.10;;
55597;SDS011;41463;53.186;5.552;2023-02-10T03:32:45;23.60;;;5.32;;
55597;SDS011;41463;53.186;5.552;2023-02-10T03:35:39;23.00;;;5.55;;
55597;SDS011;41463;53.186;5.552;2023-02-10T03:38:36;12.90;;;4.18;;
55597;SDS011;41463;53.186;5.552;2023-02-10T03:41:16;15.13;;;3.88;;
55597;SDS011;41463;53.186;5.552;2023-02-10T03:47:07;19.08;;;4.13;;
55597;SDS011;41463;53.186;5.552;2023-02-10T03:53:01;18.30;;;5.88;;
55597;SDS011;41463;53.186;5.552;2023-02-10T03:55:37;16.95;;;5.07;;
55597;SDS011;41463;53.186;5.552;2023-02-10T03:58:34;22.25;;;4.90;;
55597;SDS011;41463;53.186;5.552;2023-02-10T04:04:52;23.65;;;5.22;;
55597;SDS011;41463;53.186;5.552;2023-02-10T04:07:57;16.67;;;4.88;;
55597;SDS011;41463;53.186;5.552;2023-02-10T04:16:13;21.55;;;5.40;;
55597;SDS011;41463;53.186;5.552;2023-02-10T04:19:08;23.52;;;6.20;;
55597;SDS011;41463;53.186;5.552;2023-02-10T04:21:52;24.75;;;7.07;;
55597;SDS011;41463;53.186;5.552;2023-02-10T04:24:48;16.63;;;5.80;;
55597;SDS011;41463;53.186;5.552;2023-02-10T04:27:43;21.98;;;5.90;;
55597;SDS011;41463;53.186;5.552;2023-02-10T04:30:17;27.83;;;6.90;;
55597;SDS011;41463;53.186;5.552;2023-02-10T04:32:51;20.83;;;7.53;;
55597;SDS011;41463;53.186;5.552;2023-02-10T04:35:37;17.45;;;7.28;;
55597;SDS011;41463;53.186;5.552;2023-02-10T04:38:28;24.95;;;6.70;;
55597;SDS011;41463;53.186;5.552;2023-02-10T04:41:05;21.58;;;6.95;;
55597;SDS011;41463;53.186;5.552;2023-02-10T04:43:39;29.65;;;6.80;;
55597;SDS011;41463;53.186;5.552;2023-02-10T04:46:39;18.83;;;5.90;;
55597;SDS011;41463;53.186;5.552;2023-02-10T04:49:24;18.15;;;5.80;;
55597;SDS011;41463;53.186;5.552;2023-02-10T04:52:21;19.48;;;5.30;;
55597;SDS011;41463;53.186;5.552;2023-02-10T04:57:44;19.42;;;4.82;;
55597;SDS011;41463;53.186;5.552;2023-02-10T05:04:10;19.58;;;5.85;;
55597;SDS011;41463;53.186;5.552;2023-02-10T05:06:56;30.15;;;7.35;;
55597;SDS011;41463;53.186;5.552;2023-02-10T05:09:37;24.83;;;6.20;;
55597;SDS011;41463;53.186;5.552;2023-02-10T05:15:32;18.65;;;4.70;;
55597;SDS011;41463;53.186;5.552;2023-02-10T05:21:38;22.75;;;4.90;;
55597;SDS011;41463;53.186;5.552;2023-02-10T05:24:28;17.13;;;4.55;;
55597;SDS011;41463;53.186;5.552;2023-02-10T05:27:26;15.88;;;4.25;;
55597;SDS011;41463;53.186;5.552;2023-02-10T05:30:20;14.82;;;4.85;;
55597;SDS011;41463;53.186;5.552;2023-02-10T05:33:04;18.25;;;4.82;;
55597;SDS011;41463;53.186;5.552;2023-02-10T05:35:49;12.20;;;4.60;;
55597;SDS011;41463;53.186;5.552;2023-02-10T05:38:39;17.42;;;4.57;;
55597;SDS011;41463;53.186;5.552;2023-02-10T05:41:48;16.75;;;5.03;;
55597;SDS011;41463;53.186;5.552;2023-02-10T05:44:58;9.10;;;4.07;;
55597;SDS011;41463;53.186;5.552;2023-02-10T05:47:35;16.33;;;4.78;;
55597;SDS011;41463;53.186;5.552;2023-02-10T05:50:21;15.60;;;4.78;;
55597;SDS011;41463;53.186;5.552;2023-02-10T05:53:03;13.30;;;4.32;;
55597;SDS011;41463;53.186;5.552;2023-02-10T05:56:08;14.60;;;5.15;;
55597;SDS011;41463;53.186;5.552;2023-02-10T05:58:47;15.80;;;5.45;;
55597;SDS011;41463;53.186;5.552;2023-02-10T06:01:32;19.55;;;5.20;;
55597;SDS011;41463;53.186;5.552;2023-02-10T06:07:09;22.75;;;5.18;;
55597;SDS011;41463;53.186;5.552;2023-02-10T06:09:50;22.17;;;5.00;;
55597;SDS011;41463;53.186;5.552;2023-02-10T06:12:48;18.40;;;4.50;;
55597;SDS011;41463;53.186;5.552;2023-02-10T06:18:37;13.88;;;4.47;;
55597;SDS011;41463;53.186;5.552;2023-02-10T06:21:26;19.05;;;5.35;;
55597;SDS011;41463;53.186;5.552;2023-02-10T06:27:24;19.75;;;4.38;;
55597;SDS011;41463;53.186;5.552;2023-02-10T06:30:15;12.50;;;4.30;;
55597;SDS011;41463;53.186;5.552;2023-02-10T06:33:13;17.38;;;4.70;;
55597;SDS011;41463;53.186;5.552;2023-02-10T06:35:46;18.70;;;5.03;;
55597;SDS011;41463;53.186;5.552;2023-02-10T06:38:40;15.68;;;4.32;;
55597;SDS011;41463;53.186;5.552;2023-02-10T06:41:35;16.75;;;4.38;;
55597;SDS011;41463;53.186;5.552;2023-02-10T06:44:44;21.08;;;4.45;;
55597;SDS011;41463;53.186;5.552;2023-02-10T06:47:46;20.55;;;4.90;;
55597;SDS011;41463;53.186;5.552;2023-02-10T06:53:58;16.92;;;5.25;;
55597;SDS011;41463;53.186;5.552;2023-02-10T07:03:19;17.38;;;5.30;;
55597;SDS011;41463;53.186;5.552;2023-02-10T07:10:00;14.52;;;4.57;;
55597;SDS011;41463;53.186;5.552;2023-02-10T07:12:48;19.42;;;5.32;;
55597;SDS011;41463;53.186;5.552;2023-02-10T07:15:40;20.42;;;5.68;;
55597;SDS011;41463;53.186;5.552;2023-02-10T07:18:24;19.35;;;5.53;;
55597;SDS011;41463;53.186;5.552;2023-02-10T07:24:18;12.05;;;5.45;;
55597;SDS011;41463;53.186;5.552;2023-02-10T07:30:16;15.63;;;5.30;;
55597;SDS011;41463;53.186;5.552;2023-02-10T07:35:46;21.08;;;5.72;;
55597;SDS011;41463;53.186;5.552;2023-02-10T07:41:16;19.42;;;5.28;;
55597;SDS011;41463;53.186;5.552;2023-02-10T07:50:11;17.00;;;5.35;;
55597;SDS011;41463;53.186;5.552;2023-02-10T07:53:17;17.02;;;6.47;;
55597;SDS011;41463;53.186;5.552;2023-02-10T07:56:22;15.57;;;5.38;;
55597;SDS011;41463;53.186;5.552;2023-02-10T08:10:01;23.05;;;6.75;;
55597;SDS011;41463;53.186;5.552;2023-02-10T08:12:55;19.27;;;6.53;;
55597;SDS011;41463;53.186;5.552;2023-02-10T08:22:49;21.77;;;6.90;;
55597;SDS011;41463;53.186;5.552;2023-02-10T08:29:40;21.52;;;6.05;;
55597;SDS011;41463;53.186;5.552;2023-02-10T08:32:36;19.35;;;6.82;;
55597;SDS011;41463;53.186;5.552;2023-02-10T08:35:06;17.73;;;6.10;;
55597;SDS011;41463;53.186;5.552;2023-02-10T08:38:21;22.13;;;5.78;;
55597;SDS011;41463;53.186;5.552;2023-02-10T08:44:53;15.60;;;5.38;;
55597;SDS011;41463;53.186;5.552;2023-02-10T08:47:49;14.35;;;5.40;;
55597;SDS011;41463;53.186;5.552;2023-02-10T08:57:07;19.83;;;5.90;;
55597;SDS011;41463;53.186;5.552;2023-02-10T09:03:08;19.35;;;6.30;;
55597;SDS011;41463;53.186;5.552;2023-02-10T09:06:11;17.83;;;6.18;;
55597;SDS011;41463;53.186;5.552;2023-02-10T09:09:12;16.17;;;5.85;;
55597;SDS011;41463;53.186;5.552;2023-02-10T09:12:47;18.38;;;6.35;;
55597;SDS011;41463;53.186;5.552;2023-02-10T09:18:26;21.83;;;6.25;;
55597;SDS011;41463;53.186;5.552;2023-02-10T09:21:45;24.40;;;6.82;;
55597;SDS011;41463;53.186;5.552;2023-02-10T09:24:26;20.25;;;6.65;;
55597;SDS011;41463;53.186;5.552;2023-02-10T09:27:45;18.13;;;5.45;;
55597;SDS011;41463;53.186;5.552;2023-02-10T09:34:24;18.63;;;6.60;;
55597;SDS011;41463;53.186;5.552;2023-02-10T09:37:12;22.20;;;7.47;;
55597;SDS011;41463;53.186;5.552;2023-02-10T09:49:27;20.40;;;5.97;;
55597;SDS011;41463;53.186;5.552;2023-02-10T09:55:15;20.10;;;6.78;;
55597;SDS011;41463;53.186;5.552;2023-02-10T10:05:16;19.95;;;6.85;;
55597;SDS011;41463;53.186;5.552;2023-02-10T10:11:52;19.83;;;6.38;;
55597;SDS011;41463;53.186;5.552;2023-02-10T10:32:20;15.52;;;4.97;;
55597;SDS011;41463;53.186;5.552;2023-02-10T10:42:23;14.20;;;4.95;;
55597;SDS011;41463;53.186;5.552;2023-02-10T11:31:32;13.23;;;3.22;;
55597;SDS011;41463;53.186;5.552;2023-02-10T11:47:31;15.27;;;3.47;;
55597;SDS011;41463;53.186;5.552;2023-02-10T11:50:44;15.05;;;4.18;;
55597;SDS011;41463;53.186;5.552;2023-02-10T12:11:23;13.10;;;3.25;;
55597;SDS011;41463;53.186;5.552;2023-02-10T12:46:23;14.80;;;3.30;;
55597;SDS011;41463;53.186;5.552;2023-02-10T12:52:41;10.50;;;3.85;;
55597;SDS011;41463;53.186;5.552;2023-02-10T13:00:06;10.10;;;3.17;;
55597;SDS011;41463;53.186;5.552;2023-02-10T13:10:35;15.55;;;3.10;;
55597;SDS011;41463;53.186;5.552;2023-02-10T13:42:46;9.77;;;3.33;;
55597;SDS011;41463;53.186;5.552;2023-02-10T14:00:44;13.20;;;3.30;;
55597;SDS011;41463;53.186;5.552;2023-02-10T14:04:07;11.30;;;3.03;;
55597;SDS011;41463;53.186;5.552;2023-02-10T14:07:30;18.45;;;3.00;;
55597;SDS011;41463;53.186;5.552;2023-02-10T14:43:44;18.08;;;3.72;;
55597;SDS011;41463;53.186;5.552;2023-02-10T15:03:55;13.77;;;2.85;;
55597;SDS011;41463;53.186;5.552;2023-02-10T15:06:31;14.80;;;3.63;;
55597;SDS011;41463;53.186;5.552;2023-02-10T15:09:18;11.82;;;2.72;;
55597;SDS011;41463;53.186;5.552;2023-02-10T15:11:49;16.52;;;2.97;;
55597;SDS011;41463;53.186;5.552;2023-02-10T15:17:27;11.80;;;2.75;;
55597;SDS011;41463;53.186;5.552;2023-02-10T15:19:59;11.25;;;3.00;;
55597;SDS011;41463;53.186;5.552;2023-02-10T15:22:45;10.85;;;3.05;;
55597;SDS011;41463;53.186;5.552;2023-02-10T15:25:28;10.07;;;2.75;;
55597;SDS011;41463;53.186;5.552;2023-02-10T15:30:43;12.73;;;2.85;;
55597;SDS011;41463;53.186;5.552;2023-02-10T15:35:55;19.50;;;3.13;;
55597;SDS011;41463;53.186;5.552;2023-02-10T15:38:47;11.93;;;3.95;;
55597;SDS011;41463;53.186;5.552;2023-02-10T15:41:32;9.43;;;3.65;;
55597;SDS011;41463;53.186;5.552;2023-02-10T15:49:40;13.25;;;4.60;;
55597;SDS011;41463;53.186;5.552;2023-02-10T15:52:13;19.30;;;4.40;;
55597;SDS011;41463;53.186;5.552;2023-02-10T15:54:44;20.17;;;4.40;;
55597;SDS011;41463;53.186;5.552;2023-02-10T15:57:13;16.23;;;4.50;;
55597;SDS011;41463;53.186;5.552;2023-02-10T15:59:38;18.77;;;4.40;;
55597;SDS011;41463;53.186;5.552;2023-02-10T16:02:05;13.95;;;3.75;;
55597;SDS011;41463;53.186;5.552;2023-02-10T16:04:38;10.95;;;3.05;;
55597;SDS011;41463;53.186;5.552;2023-02-10T16:07:04;11.25;;;3.40;;
55597;SDS011;41463;53.186;5.552;2023-02-10T16:09:38;18.80;;;4.55;;
55597;SDS011;41463;53.186;5.552;2023-02-10T16:12:04;13.63;;;3.50;;
55597;SDS011;41463;53.186;5.552;2023-02-10T16:14:30;14.82;;;3.92;;
55597;SDS011;41463;53.186;5.552;2023-02-10T16:16:56;13.35;;;3.65;;
55597;SDS011;41463;53.186;5.552;2023-02-10T16:19:27;20.55;;;3.25;;
55597;SDS011;41463;53.186;5.552;2023-02-10T16:24:49;14.57;;;3.80;;
55597;SDS011;41463;53.186;5.552;2023-02-10T16:27:34;17.33;;;2.90;;
55597;SDS011;41463;53.186;5.552;2023-02-10T16:29:59;14.95;;;3.10;;
55597;SDS011;41463;53.186;5.552;2023-02-10T16:32:28;11.63;;;3.15;;
55597;SDS011;41463;53.186;5.552;2023-02-10T16:34:54;12.52;;;2.70;;
55597;SDS011;41463;53.186;5.552;2023-02-10T16:37:22;12.10;;;2.95;;
55597;SDS011;41463;53.186;5.552;2023-02-10T16:39:51;12.48;;;4.85;;
55597;SDS011;41463;53.186;5.552;2023-02-10T16:42:17;17.58;;;4.90;;
55597;SDS011;41463;53.186;5.552;2023-02-10T16:44:44;17.40;;;5.68;;
55597;SDS011;41463;53.186;5.552;2023-02-10T16:47:17;13.00;;;3.70;;
55597;SDS011;41463;53.186;5.552;2023-02-10T16:49:44;17.80;;;4.05;;
55597;SDS011;41463;53.186;5.552;2023-02-10T16:52:11;21.60;;;5.97;;
55597;SDS011;41463;53.186;5.552;2023-02-10T16:54:37;17.73;;;5.82;;
55597;SDS011;41463;53.186;5.552;2023-02-10T16:57:02;14.52;;;4.97;;
55597;SDS011;41463;53.186;5.552;2023-02-10T16:59:34;16.60;;;4.78;;
55597;SDS011;41463;53.186;5.552;2023-02-10T17:02:08;20.25;;;5.55;;
55597;SDS011;41463;53.186;5.552;2023-02-10T17:04:35;18.55;;;5.93;;
55597;SDS011;41463;53.186;5.552;2023-02-10T17:07:00;17.60;;;5.50;;
55597;SDS011;41463;53.186;5.552;2023-02-10T17:09:29;14.20;;;5.03;;
55597;SDS011;41463;53.186;5.552;2023-02-10T17:11:56;12.05;;;5.07;;
55597;SDS011;41463;53.186;5.552;2023-02-10T17:14:22;18.85;;;5.82;;
55597;SDS011;41463;53.186;5.552;2023-02-10T17:16:48;16.35;;;6.22;;
55597;SDS011;41463;53.186;5.552;2023-02-10T17:19:17;16.27;;;6.68;;
55597;SDS011;41463;53.186;5.552;2023-02-10T17:21:47;20.58;;;9.27;;
55597;SDS011;41463;53.186;5.552;2023-02-10T17:24:13;19.00;;;7.18;;
55597;SDS011;41463;53.186;5.552;2023-02-10T17:26:42;20.08;;;9.40;;
55597;SDS011;41463;53.186;5.552;2023-02-10T17:29:12;19.15;;;9.32;;
55597;SDS011;41463;53.186;5.552;2023-02-10T17:31:40;29.30;;;11.68;;
55597;SDS011;41463;53.186;5.552;2023-02-10T17:34:06;23.08;;;11.52;;
55597;SDS011;41463;53.186;5.552;2023-02-10T17:36:32;22.33;;;10.73;;
55597;SDS011;41463;53.186;5.552;2023-02-10T17:38:59;23.25;;;9.30;;
55597;SDS011;41463;53.186;5.552;2023-02-10T17:41:26;15.52;;;7.63;;
55597;SDS011;41463;53.186;5.552;2023-02-10T17:43:57;15.60;;;7.20;;
55597;SDS011;41463;53.186;5.552;2023-02-10T17:46:24;23.23;;;8.13;;
55597;SDS011;41463;53.186;5.552;2023-02-10T17:48:54;18.67;;;7.65;;
55597;SDS011;41463;53.186;5.552;2023-02-10T17:51:22;19.10;;;8.10;;
55597;SDS011;41463;53.186;5.552;2023-02-10T17:53:51;17.98;;;7.75;;
55597;SDS011;41463;53.186;5.552;2023-02-10T17:56:18;21.83;;;7.85;;
55597;SDS011;41463;53.186;5.552;2023-02-10T17:58:45;26.08;;;7.63;;
55597;SDS011;41463;53.186;5.552;2023-02-10T18:01:22;21.13;;;6.97;;
55597;SDS011;41463;53.186;5.552;2023-02-10T18:03:51;15.70;;;8.07;;
55597;SDS011;41463;53.186;5.552;2023-02-10T18:06:18;23.27;;;8.10;;
55597;SDS011;41463;53.186;5.552;2023-02-10T18:08:45;25.55;;;7.93;;
55597;SDS011;41463;53.186;5.552;2023-02-10T18:11:11;24.92;;;8.63;;
55597;SDS011;41463;53.186;5.552;2023-02-10T18:13:38;16.23;;;7.82;;
55597;SDS011;41463;53.186;5.552;2023-02-10T18:16:04;28.10;;;9.20;;
55597;SDS011;41463;53.186;5.552;2023-02-10T18:18:30;23.63;;;11.77;;
55597;SDS011;41463;53.186;5.552;2023-02-10T18:20:59;19.88;;;8.32;;
55597;SDS011;41463;53.186;5.552;2023-02-10T18:23:25;22.00;;;7.15;;
55597;SDS011;41463;53.186;5.552;2023-02-10T18:25:51;16.30;;;6.25;;
55597;SDS011;41463;53.186;5.552;2023-02-10T18:28:17;18.80;;;6.43;;
55597;SDS011;41463;53.186;5.552;2023-02-10T18:30:44;13.32;;;5.97;;
55597;SDS011;41463;53.186;5.552;2023-02-10T18:33:12;17.98;;;6.25;;
55597;SDS011;41463;53.186;5.552;2023-02-10T18:35:41;21.50;;;6.30;;
55597;SDS011;41463;53.186;5.552;2023-02-10T18:38:07;19.60;;;6.10;;
55597;SDS011;41463;53.186;5.552;2023-02-10T18:40:34;21.45;;;6.80;;
55597;SDS011;41463;53.186;5.552;2023-02-10T18:43:07;18.17;;;5.20;;
55597;SDS011;41463;53.186;5.552;2023-02-10T18:45:35;19.30;;;5.43;;
55597;SDS011;41463;53.186;5.552;2023-02-10T18:48:04;21.58;;;5.63;;
55597;SDS011;41463;53.186;5.552;2023-02-10T18:50:30;26.95;;;6.70;;
55597;SDS011;41463;53.186;5.552;2023-02-10T18:52:56;24.45;;;5.72;;
55597;SDS011;41463;53.186;5.552;2023-02-10T18:55:22;18.60;;;5.60;;
55597;SDS011;41463;53.186;5.552;2023-02-10T18:57:51;19.75;;;5.82;;
55597;SDS011;41463;53.186;5.552;2023-02-10T19:09:13;16.20;;;5.25;;
55597;SDS011;41463;53.186;5.552;2023-02-10T19:11:40;23.58;;;5.78;;
55597;SDS011;41463;53.186;5.552;2023-02-10T19:14:06;23.77;;;5.75;;
55597;SDS011;41463;53.186;5.552;2023-02-10T19:16:33;26.42;;;7.68;;
55597;SDS011;41463;53.186;5.552;2023-02-10T19:19:00;18.52;;;5.35;;
55597;SDS011;41463;53.186;5.552;2023-02-10T19:21:26;28.15;;;6.15;;
55597;SDS011;41463;53.186;5.552;2023-02-10T19:23:54;19.30;;;4.35;;
55597;SDS011;41463;53.186;5.552;2023-02-10T19:26:23;19.40;;;4.32;;
55597;SDS011;41463;53.186;5.552;2023-02-10T19:28:49;16.95;;;5.32;;
55597;SDS011;41463;53.186;5.552;2023-02-10T19:31:18;16.52;;;5.28;;
55597;SDS011;41463;53.186;5.552;2023-02-10T19:33:44;22.95;;;5.05;;
55597;SDS011;41463;53.186;5.552;2023-02-10T19:36:13;19.27;;;5.05;;
55597;SDS011;41463;53.186;5.552;2023-02-10T19:38:40;27.83;;;6.20;;
55597;SDS011;41463;53.186;5.552;2023-02-10T19:41:09;19.65;;;4.95;;
55597;SDS011;41463;53.186;5.552;2023-02-10T19:43:43;21.38;;;5.95;;
55597;SDS011;41463;53.186;5.552;2023-02-10T19:46:13;21.08;;;6.43;;
55597;SDS011;41463;53.186;5.552;2023-02-10T19:48:43;19.50;;;5.13;;
55597;SDS011;41463;53.186;5.552;2023-02-10T19:51:14;19.10;;;4.55;;
55597;SDS011;41463;53.186;5.552;2023-02-10T19:53:45;22.48;;;6.60;;
55597;SDS011;41463;53.186;5.552;2023-02-10T19:56:11;19.38;;;5.78;;
55597;SDS011;41463;53.186;5.552;2023-02-10T19:58:38;21.38;;;6.63;;
55597;SDS011;41463;53.186;5.552;2023-02-10T20:01:05;17.90;;;6.03;;
55597;SDS011;41463;53.186;5.552;2023-02-10T20:03:33;28.30;;;6.70;;
55597;SDS011;41463;53.186;5.552;2023-02-10T20:06:02;28.10;;;6.05;;
55597;SDS011;41463;53.186;5.552;2023-02-10T20:08:29;23.80;;;5.97;;
55597;SDS011;41463;53.186;5.552;2023-02-10T20:10:55;20.95;;;6.13;;
55597;SDS011;41463;53.186;5.552;2023-02-10T20:13:25;22.38;;;5.63;;
55597;SDS011;41463;53.186;5.552;2023-02-10T20:15:51;24.25;;;5.88;;
55597;SDS011;41463;53.186;5.552;2023-02-10T20:18:20;15.50;;;4.82;;
55597;SDS011;41463;53.186;5.552;2023-02-10T20:20:49;18.92;;;5.20;;
55597;SDS011;41463;53.186;5.552;2023-02-10T20:23:19;23.38;;;6.25;;
55597;SDS011;41463;53.186;5.552;2023-02-10T20:25:47;23.30;;;6.68;;
55597;SDS011;41463;53.186;5.552;2023-02-10T20:28:13;24.52;;;5.95;;
55597;SDS011;41463;53.186;5.552;2023-02-10T20:30:39;26.10;;;6.15;;
55597;SDS011;41463;53.186;5.552;2023-02-10T20:33:05;25.83;;;7.18;;
55597;SDS011;41463;53.186;5.552;2023-02-10T20:35:33;19.13;;;6.55;;
55597;SDS011;41463;53.186;5.552;2023-02-10T20:38:00;17.23;;;6.18;;
55597;SDS011;41463;53.186;5.552;2023-02-10T20:40:29;25.98;;;7.18;;
55597;SDS011;41463;53.186;5.552;2023-02-10T20:42:55;25.52;;;6.40;;
55597;SDS011;41463;53.186;5.552;2023-02-10T20:45:21;23.77;;;6.75;;
55597;SDS011;41463;53.186;5.552;2023-02-10T20:47:48;27.90;;;6.03;;
55597;SDS011;41463;53.186;5.552;2023-02-10T20:50:14;23.15;;;6.22;;
55597;SDS011;41463;53.186;5.552;2023-02-10T20:52:40;26.80;;;6.25;;
55597;SDS011;41463;53.186;5.552;2023-02-10T20:55:09;26.50;;;6.18;;
55597;SDS011;41463;53.186;5.552;2023-02-10T20:57:36;24.02;;;5.45;;
55597;SDS011;41463;53.186;5.552;2023-02-10T21:00:03;21.83;;;5.22;;
55597;SDS011;41463;53.186;5.552;2023-02-10T21:02:40;23.27;;;5.30;;
55597;SDS011;41463;53.186;5.552;2023-02-10T21:05:07;21.25;;;5.32;;
55597;SDS011;41463;53.186;5.552;2023-02-10T21:07:33;16.73;;;4.18;;
55597;SDS011;41463;53.186;5.552;2023-02-10T21:09:59;24.90;;;4.97;;
55597;SDS011;41463;53.186;5.552;2023-02-10T21:12:25;20.35;;;5.60;;
55597;SDS011;41463;53.186;5.552;2023-02-10T21:14:51;23.30;;;5.03;;
55597;SDS011;41463;53.186;5.552;2023-02-10T21:17:17;20.27;;;4.72;;
55597;SDS011;41463;53.186;5.552;2023-02-10T21:19:43;19.90;;;3.97;;
55597;SDS011;41463;53.186;5.552;2023-02-10T21:22:12;25.13;;;5.45;;
55597;SDS011;41463;53.186;5.552;2023-02-10T21:24:37;21.48;;;4.93;;
55597;SDS011;41463;53.186;5.552;2023-02-10T21:27:07;28.55;;;5.00;;
55597;SDS011;41463;53.186;5.552;2023-02-10T21:29:33;22.95;;;5.75;;
55597;SDS011;41463;53.186;5.552;2023-02-10T21:31:58;19.77;;;5.35;;
55597;SDS011;41463;53.186;5.552;2023-02-10T21:34:27;24.25;;;5.50;;
55597;SDS011;41463;53.186;5.552;2023-02-10T21:36:53;24.63;;;5.43;;
55597;SDS011;41463;53.186;5.552;2023-02-10T21:39:19;21.60;;;4.25;;
55597;SDS011;41463;53.186;5.552;2023-02-10T21:41:45;27.15;;;4.65;;
55597;SDS011;41463;53.186;5.552;2023-02-10T21:44:16;18.58;;;4.65;;
55597;SDS011;41463;53.186;5.552;2023-02-10T21:46:44;20.88;;;4.68;;
55597;SDS011;41463;53.186;5.552;2023-02-10T21:49:11;25.63;;;4.95;;
55597;SDS011;41463;53.186;5.552;2023-02-10T21:51:38;15.18;;;4.63;;
55597;SDS011;41463;53.186;5.552;2023-02-10T21:54:08;30.23;;;5.30;;
55597;SDS011;41463;53.186;5.552;2023-02-10T21:56:34;23.88;;;5.28;;
55597;SDS011;41463;53.186;5.552;2023-02-10T21:59:00;23.45;;;5.57;;
55597;SDS011;41463;53.186;5.552;2023-02-10T22:01:31;26.05;;;5.93;;
55597;SDS011;41463;53.186;5.552;2023-02-10T22:03:58;30.23;;;5.95;;
55597;SDS011;41463;53.186;5.552;2023-02-10T22:06:25;24.35;;;5.45;;
55597;SDS011;41463;53.186;5.552;2023-02-10T22:08:53;28.13;;;5.50;;
55597;SDS011;41463;53.186;5.552;2023-02-10T22:11:18;21.60;;;5.07;;
55597;SDS011;41463;53.186;5.552;2023-02-10T22:13:44;30.52;;;4.65;;
55597;SDS011;41463;53.186;5.552;2023-02-10T22:16:12;27.27;;;6.10;;
55597;SDS011;41463;53.186;5.552;2023-02-10T22:18:40;26.30;;;5.25;;
55597;SDS011;41463;53.186;5.552;2023-02-10T22:21:17;19.90;;;5.70;;
55597;SDS011;41463;53.186;5.552;2023-02-10T22:23:45;31.17;;;7.45;;
55597;SDS011;41463;53.186;5.552;2023-02-10T22:26:13;24.38;;;5.60;;
55597;SDS011;41463;53.186;5.552;2023-02-10T22:28:40;23.60;;;6.07;;
55597;SDS011;41463;53.186;5.552;2023-02-10T22:31:08;19.73;;;5.47;;
55597;SDS011;41463;53.186;5.552;2023-02-10T22:33:36;25.70;;;5.50;;
55597;SDS011;41463;53.186;5.552;2023-02-10T22:36:03;25.00;;;6.07;;
55597;SDS011;41463;53.186;5.552;2023-02-10T22:38:30;27.52;;;5.97;;
55597;SDS011;41463;53.186;5.552;2023-02-10T22:40:57;30.80;;;5.90;;
55597;SDS011;41463;53.186;5.552;2023-02-10T22:43:22;25.50;;;6.00;;
55597;SDS011;41463;53.186;5.552;2023-02-10T22:45:50;32.92;;;5.63;;
55597;SDS011;41463;53.186;5.552;2023-02-10T22:48:16;27.17;;;5.72;;
55597;SDS011;41463;53.186;5.552;2023-02-10T22:50:43;25.42;;;5.70;;
55597;SDS011;41463;53.186;5.552;2023-02-10T22:53:09;26.33;;;5.28;;
55597;SDS011;41463;53.186;5.552;2023-02-10T22:55:35;27.15;;;5.93;;
55597;SDS011;41463;53.186;5.552;2023-02-10T22:58:00;21.67;;;5.88;;
55597;SDS011;41463;53.186;5.552;2023-02-10T23:00:27;26.33;;;6.93;;
55597;SDS011;41463;53.186;5.552;2023-02-10T23:02:54;27.05;;;7.38;;
55597;SDS011;41463;53.186;5.552;2023-02-10T23:05:23;22.92;;;6.43;;
55597;SDS011;41463;53.186;5.552;2023-02-10T23:07:52;18.10;;;5.30;;
55597;SDS011;41463;53.186;5.552;2023-02-10T23:10:17;19.58;;;5.38;;
55597;SDS011;41463;53.186;5.552;2023-02-10T23:12:43;24.30;;;5.50;;
55597;SDS011;41463;53.186;5.552;2023-02-10T23:15:09;25.85;;;6.82;;
55597;SDS011;41463;53.186;5.552;2023-02-10T23:17:36;16.92;;;5.65;;
55597;SDS011;41463;53.186;5.552;2023-02-10T23:20:02;22.15;;;6.70;;
55597;SDS011;41463;53.186;5.552;2023-02-10T23:22:29;18.63;;;6.00;;
55597;SDS011;41463;53.186;5.552;2023-02-10T23:24:55;29.00;;;6.05;;
55597;SDS011;41463;53.186;5.552;2023-02-10T23:27:23;27.50;;;6.10;;
55597;SDS011;41463;53.186;5.552;2023-02-10T23:29:53;27.80;;;5.63;;